Terminal Aerodrome Forecast
Issued by NWS New Orleans/Baton Rouge, LA

Home | Current Version | Previous Version | Text Only | Print | Product List | Glossary On
Versions: 1 2 3 4 5 6 7 8 9 10 11 12 13 14 15 16 17 18 19 20 21 22
000
FTUS44 KLIX 291100
TAFNEW
TAF
KNEW 291122Z 2912/3012 02012KT P6SM SCT040 BKN250
     FM291400 02007KT P6SM SCT040 BKN250
     FM292000 32005KT P6SM SCT200
     FM300400 02008KT P6SM FEW070
     FM301100 05008KT P6SM FEW250=

USA.gov is the U.S. government's official web portal to all federal, state and local government web resources and services.